Rampart, Alaska
Current Conditions -  °F | °C
As of 3:52 PM on Monday 22 Dec 2014 (Local Time) from PATA Reporting Station
Overcast Overcast  
Wind Chill:   Ceiling: 2300
Heat Index:   Visibility: 10mi
Dew Point: -2°   Wind: 0mph
Humidity: 83%   Direction: NA
Pressure: 29.96"   Gusts: NA
Location:  65.5°N, 150.17°W
Report Text: PATA 230052Z 00000KT 10SM OVC023 M17/M19 A2996 RMK AO2 SNE13 SLP155 T11671189
Loading
Personal Weather Stations






























Interactive Weather Map New forecast layout! Learn more

10-Day Weather Forecast

Advertisements
Track Severe Weather on mobile